Weather History for YPKU - April, 2013

Change the Weather History Date:

Friday, April 26, 2013

  Actual Average Record
Temperature  
Mean Temperature 82 °F -  
Max Temperature 96 °F - - ()
Min Temperature 67 °F - - ()
Cooling Degree Days 16    
Growing Degree Days 32 (Base 50)    
Moisture  
Dew Point 52 °F    
Average Humidity 40    
Maximum Humidity 83    
Minimum Humidity 8    
Precipitation  
Precipitation 0.00 in - - ()
Sea Level Pressure  
Sea Level Pressure 29.94 in    
Wind  
Wind Speed 6 mph ()    
Max Wind Speed 17 mph    
Max Gust Speed -    
Visibility 6.3 miles    
Events      
T = Trace of Precipitation, MM = Missing Value Source: Averaged Metar Reports

Daily Weather History Graph

Daily Weather History Graph

Search for Another Location

Airport or City:

Trip Planner

Search our weather history database for the weather conditions in past years. The results will help you decide how hot, cold, wet, or windy it might be!

Date:

Astronomy

Apr. 26, 2013 Rise Set
Actual Time 5:34 AM AWST 5:10 PM AWST
Civil Twilight 5:12 AM AWST 5:32 PM AWST
Nautical Twilight 4:47 AM AWST 5:58 PM AWST
Astronomical Twilight 4:22 AM AWST 6:23 PM AWST
Moon 5:34 PM AWST (4/26) 5:42 AM AWST (4/26)
Length of Visible Light 12h 19m
Length of Day
11h 35m
Full, 100% of the Moon is Illuminated
Apr 26
Full
May 2
Last Quarter
May 10
New
May 18
First Quarter
May 25
Full

Hourly Weather History & Observations

Time (AWST) Temp. Heat Index Dew Point Humidity Pressure Visibility Wind Dir Wind Speed Gust Speed Precip Events Conditions
12:00 AM 78 °F - 60 °F 44% 29.96 in - SE 4.6 mph - -  
12:00 AM 77.0 °F - 60.8 °F 57% 29.95 in 6.2 mi SE 4.6 mph - N/A   Unknown
12:30 AM 77.0 °F - 62.6 °F 61% 29.95 in 6.2 mi SSE 4.6 mph - N/A   Unknown
1:00 AM 71.6 °F - 64.4 °F 78% 29.95 in 6.2 mi SSE 3.5 mph - N/A   Unknown
1:30 AM 71.6 °F - 64.4 °F 78% 29.92 in 6.2 mi SSE 1.2 mph - N/A   Unknown
2:00 AM 69 °F - 63 °F 76% 29.94 in - South 2.3 mph - -  
2:00 AM 69.8 °F - 62.6 °F 78% 29.92 in 6.2 mi South 2.3 mph - N/A   Unknown
2:30 AM 68.0 °F - 62.6 °F 83% 29.92 in 6.2 mi SSE 4.6 mph - N/A   Unknown
3:00 AM 71 °F - 58 °F 53% 29.94 in - East 6.9 mph - -  
3:00 AM 71.6 °F - 57.2 °F 60% 29.95 in 6.2 mi East 6.9 mph - N/A   Unknown
3:30 AM 71.6 °F - 59.0 °F 64% 29.95 in 6.2 mi East 2.3 mph - N/A   Unknown
4:00 AM 73.4 °F - 57.2 °F 57% 29.95 in 6.2 mi South 5.8 mph - N/A   Unknown
4:30 AM 75.2 °F - 55.4 °F 50% 29.95 in 6.2 mi SSE 5.8 mph - N/A   Unknown
5:00 AM 77 °F - 50 °F 27% 29.96 in - SE 8.1 mph - -  
5:00 AM 77.0 °F - 50.0 °F 39% 29.95 in 6.2 mi SE 8.1 mph - N/A   Unknown
5:30 AM 75.2 °F - 51.8 °F 44% 29.98 in 6.2 mi East 8.1 mph - N/A   Unknown
6:00 AM 78 °F - 46 °F 22% 29.99 in 6 mi SE 9.2 mph - -   Partly Cloudy
6:00 AM 77.0 °F - 46.4 °F 34% 29.98 in 6.2 mi SE 9.2 mph - N/A   Unknown
6:30 AM 78.8 °F - 46.4 °F 32% 29.98 in 6.2 mi ESE 9.2 mph - N/A   Unknown
7:00 AM 80.6 °F - 46.4 °F 30% 30.01 in 6.2 mi SE 11.5 mph - N/A   Unknown
7:30 AM 82.4 °F - 46.4 °F 28% 30.01 in 6.2 mi ESE 10.4 mph - N/A   Unknown
8:00 AM 85 °F - 43 °F 14% 30.00 in - ESE 15.0 mph - -  
8:00 AM 84.2 °F - 42.8 °F 23% 30.01 in 6.2 mi ESE 15.0 mph - N/A   Unknown
8:30 AM 86.0 °F - 41.0 °F 20% 30.01 in 6.2 mi ESE 15.0 mph - N/A   Unknown
9:00 AM 87 °F - 41 °F 11% 30.02 in 19 mi ESE 16.1 mph - -   Partly Cloudy
9:00 AM 87.8 °F - 41.0 °F 19% 30.01 in 6.2 mi ESE 16.1 mph - N/A   Unknown
9:30 AM 89.6 °F - 41.0 °F 18% 30.01 in 6.2 mi East 17.3 mph - N/A   Unknown
10:00 AM 91.4 °F - 42.8 °F 18% 30.01 in 6.2 mi ESE 12.7 mph - N/A   Unknown
10:30 AM 91.4 °F - 41.0 °F 17% 29.98 in 6.2 mi SE 15.0 mph - N/A   Unknown
11:00 AM 92 °F - 39 °F 8% 29.98 in - ESE 13.8 mph - -  
11:00 AM 91.4 °F - 39.2 °F 16% 29.98 in 6.2 mi ESE 13.8 mph - N/A   Unknown
11:30 AM 93.2 °F - 42.8 °F 17% 29.95 in 6.2 mi ESE 10.4 mph - N/A   Unknown
12:00 PM 94 °F - 43 °F 9% 29.94 in - SE 9.2 mph - -  
12:00 PM 93.2 °F - 42.8 °F 17% 29.95 in 6.2 mi SE 9.2 mph - N/A   Unknown
12:30 PM 93.2 °F - 39.2 °F 15% 29.92 in 6.2 mi ESE 11.5 mph - N/A   Unknown
1:00 PM 95.0 °F - 44.6 °F 18% 29.89 in 6.2 mi East 12.7 mph - N/A   Unknown
1:30 PM 95.0 °F - 42.8 °F 16% 29.89 in 6.2 mi ESE 10.4 mph - N/A   Unknown
2:00 PM 96 °F - 43 °F 9% 29.88 in - East 9.2 mph - -  
2:00 PM 95.0 °F - 42.8 °F 16% 29.89 in 6.2 mi East 9.2 mph - N/A   Unknown
2:30 PM 95.0 °F - 41.0 °F 15% 29.86 in 6.2 mi ESE 9.2 mph - N/A   Unknown
3:00 PM 95 °F - 42 °F 8% 29.86 in 6 mi East 11.5 mph - -   Partly Cloudy
3:00 PM 95.0 °F - 41.0 °F 15% 29.86 in 6.2 mi East 11.5 mph - N/A   Unknown
3:30 PM 95.0 °F - 41.0 °F 15% 29.86 in 6.2 mi SE 8.1 mph - N/A   Unknown
4:00 PM 93.2 °F - 46.4 °F 20% 29.86 in 6.2 mi ESE 6.9 mph - N/A   Unknown
4:30 PM 91.4 °F - 48.2 °F 23% 29.86 in 6.2 mi ESE 6.9 mph - N/A   Unknown
5:00 PM 88 °F - 55 °F 23% 29.88 in - East 3.5 mph - -  
5:00 PM 87.8 °F 86.1 °F 55.4 °F 33% 29.89 in 6.2 mi East 3.5 mph - N/A   Unknown
5:30 PM 82.4 °F 82.5 °F 59.0 °F 45% 29.89 in 6.2 mi Calm Calm - N/A   Unknown
6:00 PM 78 °F - 60 °F 44% 29.91 in - Calm Calm - -  
6:00 PM 78.8 °F - 60.8 °F 54% 29.92 in 6.2 mi Calm Calm - N/A   Unknown
6:30 PM 75.2 °F - 59.0 °F 57% 29.92 in 6.2 mi ESE 1.2 mph - N/A   Unknown
7:00 PM 73.4 °F - 59.0 °F 61% 29.92 in 6.2 mi SW 1.2 mph - N/A   Unknown
8:00 PM 72 °F - 60 °F 57% 29.95 in - ESE 3.5 mph - -  
8:00 PM 71.6 °F - 60.8 °F 69% 29.95 in 5.6 mi ESE 3.5 mph - N/A   Unknown
8:30 PM 71.6 °F - 60.8 °F 69% 29.95 in 6.2 mi SE 3.5 mph - N/A   Unknown
9:00 PM 71 °F - 62 °F 67% 29.95 in - South 5.8 mph - -  
9:00 PM 71.6 °F - 62.6 °F 73% 29.95 in 6.2 mi South 5.8 mph - N/A   Unknown
9:30 PM 71.6 °F - 62.6 °F 73% 29.95 in 6.2 mi South 3.5 mph - N/A   Unknown
10:00 PM 69.8 °F - 60.8 °F 73% 29.95 in - SSE 3.5 mph - N/A   Unknown
10:30 PM 69.8 °F - 59.0 °F 68% 29.95 in 1.5 mi SE 2.3 mph - N/A   Unknown
11:00 PM 71 °F - 57 °F 51% 29.96 in - Calm Calm - -  
11:00 PM 71.6 °F - 57.2 °F 60% 29.95 in 6.2 mi Calm Calm - N/A   Unknown
11:30 PM 68.0 °F - 59.0 °F 73% 29.95 in 6.2 mi Calm Calm - N/A   Unknown